Time;durP1;ratioP1;P1;durP2;ratioP2;P2;SDS_P1;SDS_P2;PMS_P1;PMS_P2;Temp;Humidity;BMP_temperature;BMP_pressure;BME280_temperature;BME280_humidity;BME280_pressure;Samples;Min_cycle;Max_cycle;Signal;HPM_P1;HPM_P2
2023/09/01 00:00:03;;;;;;;4.37;1.90;;;12.00;99.90;;;;;;5108029;28;20224;-82
2023/09/01 00:02:34;;;;;;;4.10;1.80;;;12.00;99.90;;;;;;5100345;28;20797;-82
2023/09/01 00:05:08;;;;;;;4.60;1.80;;;12.00;99.90;;;;;;5102835;28;20796;-82
2023/09/01 00:07:35;;;;;;;3.60;1.63;;;12.00;99.90;;;;;;5092403;28;20247;-82
2023/09/01 00:10:03;;;;;;;3.27;1.73;;;12.00;99.90;;;;;;5104308;28;20231;-81
2023/09/01 00:12:30;;;;;;;4.30;1.73;;;12.10;99.90;;;;;;5113402;28;20271;-80
2023/09/01 00:14:57;;;;;;;4.53;1.67;;;12.10;99.90;;;;;;5085210;28;20846;-81
2023/09/01 00:17:24;;;;;;;2.30;1.60;;;12.10;99.90;;;;;;5079867;28;20321;-82
2023/09/01 00:19:53;;;;;;;3.53;1.67;;;12.10;99.90;;;;;;5097113;28;20255;-82
2023/09/01 00:22:20;;;;;;;5.10;2.03;;;12.20;99.90;;;;;;5097330;28;20244;-82
2023/09/01 00:24:46;;;;;;;2.97;1.70;;;12.20;99.90;;;;;;5088297;28;20226;-83
2023/09/01 00:27:13;;;;;;;3.77;2.10;;;12.20;99.90;;;;;;5072856;28;20251;-83
2023/09/01 00:29:40;;;;;;;5.23;1.87;;;12.20;99.90;;;;;;5087886;28;20228;-81
2023/09/01 00:32:07;;;;;;;3.40;1.90;;;12.30;99.90;;;;;;5073411;28;20237;-82
2023/09/01 00:34:34;;;;;;;3.43;1.53;;;12.30;99.90;;;;;;5088647;28;20753;-83
2023/09/01 00:37:03;;;;;;;4.43;1.80;;;12.30;99.90;;;;;;5091762;28;20307;-83
2023/09/01 00:39:30;;;;;;;2.80;1.50;;;12.40;99.90;;;;;;5098754;28;20879;-82
2023/09/01 00:41:57;;;;;;;3.33;1.63;;;12.40;99.90;;;;;;5107335;28;20225;-81
2023/09/01 00:44:23;;;;;;;3.80;1.67;;;12.40;99.90;;;;;;5088735;28;20235;-80
2023/09/01 00:46:50;;;;;;;3.80;1.70;;;12.50;99.90;;;;;;5087417;28;20215;-81
2023/09/01 00:49:18;;;;;;;4.17;1.50;;;12.50;99.90;;;;;;5082669;28;20265;-81
2023/09/01 00:51:46;;;;;;;3.10;1.90;;;12.60;99.90;;;;;;5076265;28;20986;-81
2023/09/01 00:54:15;;;;;;;3.53;1.90;;;12.60;99.90;;;;;;5082701;28;20230;-82
2023/09/01 00:56:44;;;;;;;3.70;1.90;;;12.60;99.90;;;;;;5089472;28;20225;-82
2023/09/01 00:59:11;;;;;;;6.43;1.87;;;12.60;99.90;;;;;;5088035;28;20231;-82
2023/09/01 01:01:38;;;;;;;5.47;2.10;;;12.60;99.90;;;;;;5086272;28;20248;-82
2023/09/01 01:04:07;;;;;;;4.80;2.10;;;12.60;99.90;;;;;;5089724;28;20245;-82
2023/09/01 01:06:43;;;;;;;4.30;1.80;;;12.70;99.90;;;;;;5112990;28;20229;-81
2023/09/01 01:09:20;;;;;;;3.70;1.80;;;12.60;99.90;;;;;;5085713;28;20299;-81
2023/09/01 01:11:53;;;;;;;4.87;2.30;;;12.60;99.90;;;;;;5091246;28;20228;-81
2023/09/01 01:14:24;;;;;;;3.13;1.70;;;12.60;99.90;;;;;;5110107;28;20315;-81
2023/09/01 01:16:53;;;;;;;5.70;2.40;;;12.60;99.90;;;;;;5110813;28;20716;-80
2023/09/01 01:19:39;;;;;;;5.40;2.20;;;12.60;99.90;;;;;;5110319;28;20302;-80
2023/09/01 01:22:08;;;;;;;5.20;2.00;;;12.60;99.90;;;;;;5107262;28;20238;-82
2023/09/01 01:24:36;;;;;;;5.50;2.00;;;12.60;99.90;;;;;;5077987;28;20587;-82
2023/09/01 01:27:03;;;;;;;6.00;1.60;;;12.60;99.90;;;;;;5111340;28;20232;-81
2023/09/01 01:29:30;;;;;;;3.27;1.73;;;12.60;99.90;;;;;;5085740;28;20225;-80
2023/09/01 01:31:58;;;;;;;7.70;2.27;;;12.60;99.90;;;;;;5084799;28;20231;-81
2023/09/01 01:34:31;;;;;;;4.03;1.93;;;12.60;99.90;;;;;;5092035;28;20228;-81
2023/09/01 01:37:11;;;;;;;6.43;2.63;;;12.60;99.90;;;;;;5099801;28;20218;-82
2023/09/01 01:39:41;;;;;;;4.70;1.83;;;12.50;99.90;;;;;;5092465;28;20305;-81
2023/09/01 01:42:11;;;;;;;6.20;2.47;;;12.50;99.90;;;;;;5072499;28;20223;-82
2023/09/01 01:44:42;;;;;;;3.50;1.80;;;12.40;99.90;;;;;;5100733;28;20649;-82
2023/09/01 01:47:11;;;;;;;4.70;2.13;;;12.40;99.90;;;;;;5091204;28;20300;-82
2023/09/01 01:49:38;;;;;;;5.47;2.10;;;12.40;99.90;;;;;;5070798;28;20299;-82
2023/09/01 01:52:05;;;;;;;6.03;2.37;;;12.30;99.90;;;;;;5087000;28;20315;-83
2023/09/01 01:54:33;;;;;;;4.13;2.10;;;12.30;99.90;;;;;;5072228;28;20652;-82
2023/09/01 01:57:01;;;;;;;5.00;1.87;;;12.20;99.90;;;;;;5070641;28;20992;-83
2023/09/01 01:59:28;;;;;;;6.47;2.30;;;12.20;99.90;;;;;;5103743;28;20222;-81
2023/09/01 02:01:55;;;;;;;5.70;2.27;;;12.20;99.90;;;;;;5072625;28;20706;-81
2023/09/01 02:04:23;;;;;;;6.53;2.10;;;12.10;99.90;;;;;;5091537;28;20230;-80
2023/09/01 02:06:49;;;;;;;4.13;2.37;;;12.20;99.90;;;;;;5079093;28;20218;-80
2023/09/01 02:09:16;;;;;;;5.33;2.20;;;12.10;99.90;;;;;;5091707;28;20707;-80
2023/09/01 02:11:43;;;;;;;6.63;1.90;;;12.10;99.90;;;;;;5102257;28;20301;-81
2023/09/01 02:14:11;;;;;;;5.63;2.20;;;12.10;99.90;;;;;;5092023;28;20225;-80
2023/09/01 02:16:39;;;;;;;3.70;1.80;;;12.10;99.90;;;;;;5108470;28;20212;-80
2023/09/01 02:19:08;;;;;;;5.97;2.13;;;12.10;99.90;;;;;;5091024;28;20257;-80
2023/09/01 02:21:35;;;;;;;5.10;2.30;;;12.10;99.90;;;;;;5091244;28;20295;-80
2023/09/01 02:24:02;;;;;;;5.40;1.90;;;12.10;99.90;;;;;;5093795;28;20234;-81
2023/09/01 02:26:29;;;;;;;7.90;2.30;;;12.00;99.90;;;;;;5089150;28;20226;-81
2023/09/01 02:28:55;;;;;;;6.10;2.30;;;12.00;99.90;;;;;;5092480;28;20235;-81
2023/09/01 02:31:24;;;;;;;4.53;2.20;;;12.00;99.90;;;;;;5070997;28;20689;-81
2023/09/01 02:33:51;;;;;;;6.57;2.17;;;11.90;99.90;;;;;;5073633;28;20222;-81
2023/09/01 02:36:26;;;;;;;7.33;2.37;;;11.90;99.90;;;;;;5079718;28;20223;-81
2023/09/01 02:38:53;;;;;;;6.10;2.37;;;11.80;99.90;;;;;;5096208;28;20301;-81
2023/09/01 02:41:21;;;;;;;5.90;2.50;;;11.80;99.90;;;;;;5071357;28;20317;-81
2023/09/01 02:43:48;;;;;;;6.47;2.47;;;11.80;99.90;;;;;;5073138;28;20214;-81
2023/09/01 02:46:16;;;;;;;3.37;2.10;;;11.70;99.90;;;;;;5088650;28;20253;-81
2023/09/01 02:48:44;;;;;;;5.23;2.10;;;11.70;99.90;;;;;;5092180;28;20791;-81
2023/09/01 02:51:11;;;;;;;7.33;2.60;;;11.60;99.90;;;;;;5088858;28;20290;-82
2023/09/01 02:53:38;;;;;;;4.40;2.30;;;11.60;99.90;;;;;;5096530;28;20271;-82
2023/09/01 02:56:05;;;;;;;6.90;2.63;;;11.60;99.90;;;;;;5105689;28;20312;-81
2023/09/01 02:58:32;;;;;;;5.43;2.70;;;11.50;99.90;;;;;;5092829;28;20276;-82
2023/09/01 03:01:07;;;;;;;4.30;2.60;;;11.50;99.90;;;;;;5088856;28;20705;-81
2023/09/01 03:03:34;;;;;;;4.73;2.43;;;11.50;99.90;;;;;;5090354;28;20223;-82
2023/09/01 03:06:05;;;;;;;5.53;2.50;;;11.50;99.90;;;;;;5089353;28;20864;-81
2023/09/01 03:08:32;;;;;;;5.00;2.37;;;11.40;99.90;;;;;;5089510;28;20274;-82
2023/09/01 03:10:59;;;;;;;6.47;2.73;;;11.40;99.90;;;;;;5081442;28;20252;-83
2023/09/01 03:13:26;;;;;;;4.57;2.70;;;11.40;99.90;;;;;;5077425;28;20223;-83
2023/09/01 03:15:55;;;;;;;3.63;2.40;;;11.40;99.90;;;;;;5099074;28;20711;-82
2023/09/01 03:18:22;;;;;;;5.83;2.70;;;11.40;99.90;;;;;;5101855;28;20241;-82
2023/09/01 03:20:50;;;;;;;5.80;2.70;;;11.40;99.90;;;;;;5075761;28;20221;-81
2023/09/01 03:23:18;;;;;;;7.03;2.80;;;11.40;99.90;;;;;;5080473;28;20312;-81
2023/09/01 03:25:54;;;;;;;12.70;3.40;;;11.50;99.90;;;;;;5090792;28;20211;-82
2023/09/01 03:28:21;;;;;;;5.20;3.07;;;11.50;99.90;;;;;;5107063;28;20668;-82
2023/09/01 03:30:48;;;;;;;5.33;2.40;;;11.50;99.90;;;;;;5092323;28;20376;-81
2023/09/01 03:33:15;;;;;;;6.67;2.67;;;11.50;99.90;;;;;;5073325;28;20215;-82
2023/09/01 03:35:42;;;;;;;4.60;2.77;;;11.50;99.90;;;;;;5079866;28;20243;-80
2023/09/01 03:38:08;;;;;;;5.57;2.50;;;11.50;99.90;;;;;;5105239;28;20321;-81
2023/09/01 03:40:38;;;;;;;4.53;2.53;;;11.60;99.90;;;;;;5082886;28;20589;-81
2023/09/01 03:43:06;;;;;;;4.67;2.73;;;11.50;99.90;;;;;;5089309;28;20282;-81
2023/09/01 03:45:32;;;;;;;5.60;2.70;;;11.50;99.90;;;;;;5093150;28;20220;-81
2023/09/01 03:47:59;;;;;;;4.53;2.40;;;11.50;99.90;;;;;;5075677;28;20230;-80
2023/09/01 03:50:26;;;;;;;5.23;2.80;;;11.50;99.90;;;;;;5090762;28;20411;-81
2023/09/01 03:52:53;;;;;;;6.90;2.70;;;11.50;99.90;;;;;;5085233;28;20219;-80
2023/09/01 03:55:20;;;;;;;5.97;3.00;;;11.50;99.90;;;;;;5107728;28;20253;-80
2023/09/01 03:57:48;;;;;;;6.00;2.70;;;11.40;99.90;;;;;;5082723;28;20227;-83
2023/09/01 04:00:17;;;;;;;4.37;2.47;;;11.40;99.90;;;;;;5090659;28;20781;-79
2023/09/01 04:02:44;;;;;;;6.17;2.50;;;11.40;99.90;;;;;;5108882;28;20224;-81
2023/09/01 04:05:11;;;;;;;4.27;2.50;;;11.30;99.90;;;;;;5087455;28;20220;-81
2023/09/01 04:07:38;;;;;;;6.90;2.90;;;11.30;99.90;;;;;;5107401;27;20232;-80
2023/09/01 04:10:06;;;;;;;5.73;2.43;;;11.20;99.90;;;;;;5104614;27;20229;-81
2023/09/01 04:12:33;;;;;;;6.43;2.40;;;11.20;99.90;;;;;;5082455;28;20214;-81
2023/09/01 04:15:01;;;;;;;5.73;2.60;;;11.20;99.90;;;;;;5110216;28;20222;-82
2023/09/01 04:17:30;;;;;;;5.53;2.67;;;11.20;99.90;;;;;;5108702;28;20680;-81
2023/09/01 04:19:57;;;;;;;6.80;2.83;;;11.10;99.90;;;;;;5088636;28;20225;-81
2023/09/01 04:22:24;;;;;;;5.77;3.10;;;11.10;99.90;;;;;;5095695;28;20232;-81
2023/09/01 04:24:51;;;;;;;4.67;2.60;;;11.10;99.90;;;;;;5087963;28;20221;-81
2023/09/01 04:27:18;;;;;;;4.83;2.40;;;11.00;99.90;;;;;;5090660;28;20767;-80
2023/09/01 04:29:45;;;;;;;6.27;2.77;;;11.00;99.90;;;;;;5091093;28;20295;-81
2023/09/01 04:32:14;;;;;;;3.50;2.63;;;11.00;99.90;;;;;;5101676;27;20243;-81
2023/09/01 04:34:41;;;;;;;5.10;2.63;;;10.90;99.90;;;;;;5087491;28;20243;-82
2023/09/01 04:37:08;;;;;;;9.33;3.03;;;10.90;99.90;;;;;;5083129;28;20218;-81
2023/09/01 04:39:35;;;;;;;6.00;3.03;;;10.90;99.90;;;;;;5089427;28;21034;-82
2023/09/01 04:42:02;;;;;;;5.37;2.87;;;10.90;99.90;;;;;;5091519;28;20239;-81
2023/09/01 04:44:29;;;;;;;6.30;3.10;;;10.80;99.90;;;;;;5106614;27;20294;-80
2023/09/01 04:46:56;;;;;;;5.77;2.80;;;10.80;99.90;;;;;;5110081;28;20322;-80
2023/09/01 04:49:25;;;;;;;4.90;2.73;;;10.80;99.90;;;;;;5084250;28;20742;-82
2023/09/01 04:51:51;;;;;;;6.73;3.10;;;10.80;99.90;;;;;;5087345;28;20229;-80
2023/09/01 04:54:19;;;;;;;7.80;3.03;;;10.80;99.90;;;;;;5108370;28;20233;-81
2023/09/01 04:56:47;;;;;;;5.77;3.10;;;10.80;99.90;;;;;;5088932;28;20244;-80
2023/09/01 04:59:14;;;;;;;8.97;3.40;;;10.80;99.90;;;;;;5095733;28;20250;-81
2023/09/01 05:01:41;;;;;;;8.37;3.80;;;10.80;99.90;;;;;;5091577;28;20229;-81
2023/09/01 05:04:10;;;;;;;10.87;3.63;;;10.80;99.90;;;;;;5105016;28;20223;-81
2023/09/01 05:06:38;;;;;;;6.43;3.50;;;10.80;99.90;;;;;;5105845;27;20222;-82
2023/09/01 05:09:05;;;;;;;8.40;3.67;;;10.80;99.90;;;;;;5084558;28;20234;-82
2023/09/01 05:11:32;;;;;;;6.77;3.50;;;10.80;99.90;;;;;;5088948;28;20226;-80
2023/09/01 05:13:59;;;;;;;7.23;3.13;;;10.90;99.90;;;;;;5085828;28;20239;-79
2023/09/01 05:16:26;;;;;;;7.10;3.30;;;10.90;99.90;;;;;;5080715;28;20229;-80
2023/09/01 05:18:52;;;;;;;8.63;3.60;;;10.90;99.90;;;;;;5088688;28;20263;-80
2023/09/01 05:21:19;;;;;;;5.27;3.40;;;11.00;99.90;;;;;;5088803;28;20290;-80
2023/09/01 05:23:48;;;;;;;5.93;3.33;;;11.00;99.90;;;;;;5090996;28;20225;-80
2023/09/01 05:26:14;;;;;;;7.53;3.40;;;11.00;99.90;;;;;;5088417;28;20226;-79
2023/09/01 05:28:42;;;;;;;9.30;3.80;;;11.00;99.90;;;;;;5102468;28;20232;-79
2023/09/01 05:31:08;;;;;;;4.83;3.40;;;11.10;99.90;;;;;;5102724;28;20233;-80
2023/09/01 05:33:40;;;;;;;7.13;3.13;;;11.10;99.90;;;;;;5076458;28;20222;-81
2023/09/01 05:36:07;;;;;;;6.13;3.40;;;11.10;99.90;;;;;;5087734;28;20311;-80
2023/09/01 05:38:34;;;;;;;8.10;4.10;;;11.20;99.90;;;;;;5084110;28;20236;-80
2023/09/01 05:41:05;;;;;;;10.30;3.30;;;11.20;99.90;;;;;;5089202;28;20719;-80
2023/09/01 05:43:32;;;;;;;6.17;3.07;;;11.20;99.90;;;;;;5087653;28;20224;-80
2023/09/01 05:46:00;;;;;;;6.50;3.40;;;11.30;99.90;;;;;;5089589;28;20236;-80
2023/09/01 05:48:27;;;;;;;7.67;3.23;;;11.30;99.90;;;;;;5099424;28;20219;-80
2023/09/01 05:50:54;;;;;;;7.60;3.80;;;11.30;99.90;;;;;;5094283;28;20237;-80
2023/09/01 05:53:22;;;;;;;7.93;3.57;;;11.40;99.90;;;;;;5092399;28;20279;-80
2023/09/01 05:55:49;;;;;;;7.20;3.23;;;11.50;99.90;;;;;;5108559;28;20226;-80
2023/09/01 05:58:18;;;;;;;6.50;3.20;;;11.50;99.90;;;;;;5099134;28;20303;-80
2023/09/01 06:00:44;;;;;;;7.27;3.60;;;11.60;99.90;;;;;;5078625;27;20316;-81
2023/09/01 06:03:11;;;;;;;8.23;3.50;;;11.70;99.90;;;;;;5091492;28;20217;-81
2023/09/01 06:05:38;;;;;;;5.17;3.30;;;11.80;99.90;;;;;;5104377;28;20228;-81
2023/09/01 06:08:05;;;;;;;7.13;3.53;;;11.90;99.90;;;;;;5110640;28;20691;-82
2023/09/01 06:10:32;;;;;;;4.97;3.43;;;11.90;99.90;;;;;;5110343;28;20258;-81
2023/09/01 06:12:58;;;;;;;13.07;4.10;;;12.00;99.90;;;;;;5099516;28;20293;-81
2023/09/01 06:15:27;;;;;;;6.13;3.20;;;12.10;99.90;;;;;;5077498;28;20226;-81
2023/09/01 06:17:53;;;;;;;8.17;3.27;;;12.20;99.90;;;;;;5108409;28;20308;-82
2023/09/01 06:20:20;;;;;;;7.03;3.07;;;12.30;99.90;;;;;;5107866;28;20223;-82
2023/09/01 06:22:47;;;;;;;8.30;3.23;;;12.40;99.90;;;;;;5109735;28;20237;-82
2023/09/01 06:25:14;;;;;;;8.53;2.70;;;12.50;99.90;;;;;;5111554;27;20224;-81
2023/09/01 06:27:40;;;;;;;9.27;3.80;;;12.70;99.90;;;;;;5084690;28;20469;-82
2023/09/01 06:30:08;;;;;;;6.57;3.10;;;12.70;99.90;;;;;;5090247;28;20233;-80
2023/09/01 06:32:36;;;;;;;4.97;2.70;;;12.90;99.90;;;;;;5104304;27;20253;-82
2023/09/01 06:35:03;;;;;;;9.97;3.10;;;13.10;99.90;;;;;;5092472;28;20298;-81
2023/09/01 06:37:29;;;;;;;4.90;2.40;;;13.20;99.90;;;;;;5102778;28;20219;-79
2023/09/01 06:39:56;;;;;;;3.57;2.27;;;13.40;99.90;;;;;;5101885;28;20300;-82
2023/09/01 06:42:23;;;;;;;6.80;2.60;;;13.50;99.90;;;;;;5099222;28;20230;-81
2023/09/01 06:44:50;;;;;;;5.57;2.83;;;13.70;99.90;;;;;;5106026;28;20234;-80
2023/09/01 06:47:17;;;;;;;6.93;2.63;;;13.90;99.90;;;;;;5099672;28;20223;-84
2023/09/01 06:49:45;;;;;;;8.03;2.73;;;14.00;99.90;;;;;;5108426;28;20768;-81
2023/09/01 06:52:13;;;;;;;5.97;2.47;;;14.10;99.90;;;;;;5088797;28;20230;-82
2023/09/01 06:54:39;;;;;;;7.60;2.47;;;14.30;99.90;;;;;;5104158;28;20244;-81
2023/09/01 06:57:06;;;;;;;7.00;2.10;;;14.30;99.90;;;;;;5104151;28;20311;-80
2023/09/01 06:59:33;;;;;;;6.10;2.50;;;14.40;99.90;;;;;;5082486;28;20235;-80
2023/09/01 07:02:00;;;;;;;8.10;2.73;;;14.40;99.90;;;;;;5107937;28;20315;-81
2023/09/01 07:04:27;;;;;;;7.37;2.50;;;14.50;99.90;;;;;;5090868;28;20224;-81
2023/09/01 07:06:55;;;;;;;5.73;2.47;;;14.50;99.90;;;;;;5101327;28;20228;-81
2023/09/01 07:09:21;;;;;;;6.13;1.83;;;14.50;99.90;;;;;;5089279;28;20225;-81
2023/09/01 07:11:48;;;;;;;5.10;2.20;;;14.50;99.90;;;;;;5102884;28;20230;-82
2023/09/01 07:14:15;;;;;;;5.60;2.07;;;14.60;99.90;;;;;;5103158;28;20235;-80
2023/09/01 07:16:41;;;;;;;5.43;2.10;;;14.60;99.90;;;;;;5099605;28;20314;-81
2023/09/01 07:19:08;;;;;;;4.27;1.87;;;14.70;99.90;;;;;;5086560;28;20234;-82
2023/09/01 07:21:35;;;;;;;3.13;2.13;;;14.70;99.90;;;;;;5097388;28;20839;-81
2023/09/01 07:24:03;;;;;;;6.13;1.90;;;14.70;99.90;;;;;;5105122;27;20217;-80
2023/09/01 07:26:29;;;;;;;3.30;1.43;;;14.70;99.90;;;;;;5112425;27;20230;-80
2023/09/01 07:28:56;;;;;;;6.43;1.70;;;14.70;99.90;;;;;;5090454;28;20220;-81
2023/09/01 07:31:23;;;;;;;4.93;1.90;;;14.80;99.90;;;;;;5101474;27;20600;-82
2023/09/01 07:33:50;;;;;;;3.27;1.50;;;14.80;99.90;;;;;;5084977;28;20227;-80
2023/09/01 07:36:17;;;;;;;3.53;1.60;;;14.90;99.90;;;;;;5109198;27;20230;-80
2023/09/01 07:38:44;;;;;;;4.93;1.70;;;14.90;99.90;;;;;;5093237;28;20222;-80
2023/09/01 07:41:11;;;;;;;6.10;2.07;;;15.00;99.90;;;;;;5103391;27;20238;-80
2023/09/01 07:43:38;;;;;;;3.07;1.60;;;15.00;99.90;;;;;;5082980;28;20713;-81
2023/09/01 07:46:05;;;;;;;4.73;2.23;;;15.10;99.90;;;;;;5084209;28;20230;-80
2023/09/01 07:48:31;;;;;;;4.47;1.80;;;15.20;99.90;;;;;;5090212;28;20322;-80
2023/09/01 07:50:58;;;;;;;4.17;1.60;;;15.30;99.90;;;;;;5083554;27;20224;-80
2023/09/01 07:53:25;;;;;;;4.77;1.70;;;15.50;99.90;;;;;;5111036;27;20225;-80
2023/09/01 07:55:52;;;;;;;3.00;1.40;;;15.80;99.90;;;;;;5088912;28;20754;-81
2023/09/01 07:58:20;;;;;;;5.33;1.60;;;16.20;99.90;;;;;;5105554;28;20235;-81
2023/09/01 08:00:46;;;;;;;3.10;1.63;;;16.60;99.90;;;;;;5106851;28;20284;-80
2023/09/01 08:03:13;;;;;;;2.33;1.27;;;17.20;99.90;;;;;;5093691;27;20229;-80
2023/09/01 08:05:40;;;;;;;4.20;1.50;;;17.80;99.90;;;;;;5110075;27;20244;-80
2023/09/01 08:08:07;;;;;;;3.45;1.42;;;18.50;99.90;;;;;;5106151;27;20230;-81
2023/09/01 08:10:34;;;;;;;3.33;1.60;;;19.20;99.90;;;;;;5110225;27;20287;-80
2023/09/01 08:13:00;;;;;;;3.97;1.20;;;19.90;99.90;;;;;;5101141;27;20236;-82
2023/09/01 08:15:29;;;;;;;4.60;1.50;;;20.50;99.90;;;;;;5090240;28;20230;-81
2023/09/01 08:17:55;;;;;;;3.20;1.25;;;21.10;99.90;;;;;;5105862;27;20225;-82
2023/09/01 08:20:23;;;;;;;2.35;1.30;;;21.60;99.90;;;;;;5107568;27;20934;-80
2023/09/01 08:22:49;;;;;;;4.07;1.40;;;22.10;99.90;;;;;;5114313;27;20221;-80
2023/09/01 08:25:16;;;;;;;5.13;1.33;;;22.50;99.90;;;;;;5084741;28;20744;-81
2023/09/01 08:27:43;;;;;;;3.58;1.40;;;22.90;99.90;;;;;;5094555;28;20222;-81
2023/09/01 08:30:10;;;;;;;2.72;1.25;;;23.40;99.90;;;;;;5104828;28;20241;-81
2023/09/01 08:32:40;;;;;;;2.35;1.27;;;23.80;99.90;;;;;;5083359;28;20228;-81
2023/09/01 08:35:07;;;;;;;2.72;1.40;;;24.10;99.80;;;;;;5106410;28;20222;-80
2023/09/01 08:37:34;;;;;;;1.83;1.20;;;24.50;99.90;;;;;;5109026;28;20280;-81
2023/09/01 08:40:01;;;;;;;4.32;1.70;;;24.90;98.50;;;;;;5102946;28;20230;-81
2023/09/01 08:42:28;;;;;;;4.03;1.20;;;25.10;97.70;;;;;;5105385;28;20226;-81
2023/09/01 08:44:57;;;;;;;2.75;1.30;;;25.40;97.10;;;;;;5094180;28;20321;-80
2023/09/01 08:47:26;;;;;;;3.00;1.40;;;25.60;96.40;;;;;;5091019;28;20232;-82
2023/09/01 08:49:55;;;;;;;4.32;1.50;;;25.80;96.30;;;;;;5108093;28;20241;-81
2023/09/01 08:52:23;;;;;;;3.28;1.35;;;26.00;96.20;;;;;;5101645;28;20312;-81
2023/09/01 08:54:50;;;;;;;4.45;1.17;;;26.20;95.60;;;;;;5105000;28;20606;-80
2023/09/01 08:57:17;;;;;;;2.53;1.20;;;26.50;95.20;;;;;;5108489;28;20312;-81
2023/09/01 08:59:44;;;;;;;3.25;1.58;;;26.60;95.00;;;;;;5109527;28;20222;-81
2023/09/01 09:02:10;;;;;;;2.72;1.27;;;26.80;94.30;;;;;;5103487;28;20586;-81
2023/09/01 09:04:37;;;;;;;2.45;1.30;;;27.00;93.90;;;;;;5110439;27;20305;-81
2023/09/01 09:07:16;;;;;;;3.60;1.27;;;27.10;93.60;;;;;;5105477;27;20241;-80
2023/09/01 09:09:58;;;;;;;2.60;1.50;;;27.30;93.00;;;;;;5086713;28;20218;-81
2023/09/01 09:12:35;;;;;;;4.63;1.30;;;27.50;92.20;;;;;;5103881;28;20291;-81
2023/09/01 09:15:03;;;;;;;4.13;1.45;;;27.70;92.10;;;;;;5098370;28;20222;-81
2023/09/01 09:17:42;;;;;;;4.18;1.60;;;27.90;92.80;;;;;;5110749;27;20229;-81
2023/09/01 09:20:10;;;;;;;2.45;1.48;;;28.10;92.20;;;;;;5090895;28;20279;-81
2023/09/01 09:22:51;;;;;;;2.45;1.30;;;28.30;92.40;;;;;;5110085;28;20222;-81
2023/09/01 09:25:30;;;;;;;2.35;1.00;;;28.50;91.20;;;;;;5103744;27;20289;-81
2023/09/01 09:27:59;;;;;;;2.85;1.17;;;28.70;90.30;;;;;;5104171;28;20225;-81
2023/09/01 09:30:26;;;;;;;3.55;1.27;;;28.80;90.50;;;;;;5115620;27;20217;-81
2023/09/01 09:33:02;;;;;;;5.07;1.27;;;28.80;89.90;;;;;;5098463;28;20218;-83
2023/09/01 09:35:29;;;;;;;2.40;1.10;;;28.80;88.20;;;;;;5090835;28;20944;-81
2023/09/01 09:37:59;;;;;;;2.97;1.33;;;28.90;89.70;;;;;;5106632;28;20309;-81
2023/09/01 09:40:26;;;;;;;2.88;1.23;;;29.00;87.90;;;;;;5092178;28;20232;-81
2023/09/01 09:42:53;;;;;;;2.50;1.33;;;29.10;89.00;;;;;;5109945;28;20224;-81
2023/09/01 09:45:26;;;;;;;2.13;1.15;;;29.30;87.40;;;;;;5088117;28;20727;-80
2023/09/01 09:47:54;;;;;;;3.35;1.30;;;29.30;85.10;;;;;;5084561;28;20214;-81
2023/09/01 09:50:21;;;;;;;3.13;1.33;;;29.30;86.60;;;;;;5091858;28;20706;-81
2023/09/01 09:52:50;;;;;;;5.35;1.45;;;29.40;85.50;;;;;;5094360;28;20237;-81
2023/09/01 09:55:25;;;;;;;3.47;1.42;;;29.40;83.00;;;;;;5106556;28;20219;-81
2023/09/01 09:57:52;;;;;;;3.08;0.98;;;29.40;82.40;;;;;;5103925;28;20710;-81
2023/09/01 10:00:21;;;;;;;1.38;1.10;;;29.40;84.50;;;;;;5105145;27;20280;-82
2023/09/01 10:02:53;;;;;;;1.92;1.25;;;29.30;82.70;;;;;;5109561;28;20308;-81
2023/09/01 10:05:22;;;;;;;2.60;1.20;;;29.30;82.10;;;;;;5094939;28;20308;-81
2023/09/01 10:07:50;;;;;;;3.35;1.10;;;29.30;81.60;;;;;;5081747;28;20210;-81
2023/09/01 10:10:18;;;;;;;3.85;1.00;;;29.30;82.70;;;;;;5107901;28;20222;-82
2023/09/01 10:12:46;;;;;;;2.95;1.13;;;29.50;81.00;;;;;;5090764;28;20218;-82
2023/09/01 10:15:15;;;;;;;2.05;1.00;;;29.50;79.00;;;;;;5105652;27;20307;-82
2023/09/01 10:17:43;;;;;;;4.13;1.00;;;29.40;79.00;;;;;;5106731;28;20276;-82
2023/09/01 10:20:12;;;;;;;2.25;1.00;;;29.20;78.40;;;;;;5089256;28;20225;-82
2023/09/01 10:22:39;;;;;;;1.38;1.00;;;29.00;80.00;;;;;;5090447;28;20275;-81
2023/09/01 10:25:09;;;;;;;1.92;1.10;;;28.80;80.70;;;;;;5084791;28;20231;-81
2023/09/01 10:27:36;;;;;;;3.05;1.10;;;28.60;80.20;;;;;;5082107;28;21036;-81
2023/09/01 10:30:24;;;;;;;2.35;1.08;;;28.50;79.40;;;;;;5085739;28;20719;-82
2023/09/01 10:32:51;;;;;;;3.70;1.38;;;28.20;79.20;;;;;;5066276;28;20300;-81
2023/09/01 10:35:40;;;;;;;4.20;1.23;;;27.90;80.10;;;;;;5067753;28;20237;-80
2023/09/01 10:38:11;;;;;;;4.53;1.23;;;27.50;79.30;;;;;;5089277;28;20230;-80
2023/09/01 10:40:42;;;;;;;3.30;2.35;;;27.20;80.00;;;;;;5089890;28;20222;-80
2023/09/01 10:43:10;;;;;;;3.83;1.75;;;26.80;81.40;;;;;;5070013;28;20225;-80
2023/09/01 10:45:38;;;;;;;2.00;1.00;;;26.50;82.20;;;;;;5090179;28;20223;-80
2023/09/01 10:48:11;;;;;;;1.75;1.10;;;26.30;82.80;;;;;;5070381;28;20230;-80
2023/09/01 10:50:40;;;;;;;2.08;0.95;;;26.30;84.70;;;;;;5088801;28;20636;-80
2023/09/01 10:53:30;;;;;;;4.47;1.13;;;26.30;83.50;;;;;;5088790;28;20226;-80
2023/09/01 10:56:07;;;;;;;3.75;1.92;;;26.40;84.20;;;;;;5089513;28;20229;-80
2023/09/01 10:58:39;;;;;;;1.67;0.90;;;26.40;83.00;;;;;;5069763;28;20214;-80
2023/09/01 11:01:27;;;;;;;3.10;1.27;;;26.50;83.20;;;;;;5088976;28;20231;-80
2023/09/01 11:03:54;;;;;;;3.47;1.25;;;26.40;83.60;;;;;;5071388;28;20222;-80
2023/09/01 11:06:21;;;;;;;2.20;1.10;;;26.30;83.30;;;;;;5070374;28;20230;-80
2023/09/01 11:08:58;;;;;;;4.10;1.10;;;26.10;83.20;;;;;;5071186;28;20218;-80
2023/09/01 11:11:25;;;;;;;2.45;1.20;;;25.90;83.70;;;;;;5089020;28;20750;-80
2023/09/01 11:13:54;;;;;;;1.90;1.17;;;25.80;84.10;;;;;;5089133;28;20227;-80
2023/09/01 11:16:20;;;;;;;3.35;1.00;;;25.70;84.60;;;;;;5088613;28;20305;-80
2023/09/01 11:18:59;;;;;;;4.93;1.10;;;25.50;84.80;;;;;;5089191;28;20222;-80
2023/09/01 11:21:26;;;;;;;3.53;1.10;;;25.40;85.00;;;;;;5088949;28;20218;-80
2023/09/01 11:23:57;;;;;;;3.03;0.98;;;25.40;85.70;;;;;;5091315;28;20305;-80
2023/09/01 11:26:24;;;;;;;2.30;1.00;;;25.20;85.20;;;;;;5108770;28;20888;-80
2023/09/01 11:28:50;;;;;;;3.80;1.10;;;25.10;85.10;;;;;;5110019;28;20699;-80
2023/09/01 11:31:17;;;;;;;4.15;1.30;;;24.90;85.90;;;;;;5107389;28;20731;-80
2023/09/01 11:33:53;;;;;;;2.22;1.20;;;24.80;85.70;;;;;;5091252;28;20298;-80
2023/09/01 11:36:20;;;;;;;2.70;1.27;;;24.70;85.70;;;;;;5108552;28;20218;-80
2023/09/01 11:38:47;;;;;;;3.42;1.20;;;24.60;85.90;;;;;;5110013;28;20882;-80
2023/09/01 11:41:18;;;;;;;1.88;1.00;;;24.40;85.80;;;;;;5109179;28;20313;-80
2023/09/01 11:43:45;;;;;;;4.45;1.38;;;24.30;86.70;;;;;;5109779;28;20226;-80
2023/09/01 11:46:12;;;;;;;3.92;1.17;;;24.20;86.20;;;;;;5107137;28;20640;-80
2023/09/01 11:48:38;;;;;;;2.25;0.95;;;24.00;86.50;;;;;;5109820;28;20214;-80
2023/09/01 11:51:08;;;;;;;2.03;0.95;;;23.90;86.30;;;;;;5090701;28;20595;-80
2023/09/01 11:53:35;;;;;;;2.47;1.15;;;23.80;86.40;;;;;;5086819;28;20787;-80
2023/09/01 11:56:17;;;;;;;2.30;1.00;;;23.70;87.60;;;;;;5088749;28;20227;-80
2023/09/01 11:58:48;;;;;;;1.95;1.00;;;23.60;86.40;;;;;;5104059;28;20226;-80
2023/09/01 12:01:17;;;;;;;2.72;1.42;;;23.50;87.00;;;;;;5086016;28;20235;-80
2023/09/01 12:03:47;;;;;;;4.53;1.30;;;23.40;87.70;;;;;;5089943;28;20230;-80
2023/09/01 12:06:19;;;;;;;1.73;1.00;;;23.40;88.40;;;;;;5091673;28;20248;-80
2023/09/01 12:08:46;;;;;;;2.20;1.10;;;23.40;88.70;;;;;;5091676;28;20223;-80
2023/09/01 12:11:13;;;;;;;2.30;1.05;;;23.50;89.50;;;;;;5090068;28;20237;-80
2023/09/01 12:13:43;;;;;;;2.70;1.05;;;23.50;89.10;;;;;;5091295;28;20225;-80
2023/09/01 12:16:19;;;;;;;1.52;0.82;;;23.60;87.90;;;;;;5091647;28;20234;-80
2023/09/01 12:18:46;;;;;;;1.77;1.23;;;23.80;87.90;;;;;;5091550;28;20272;-80
2023/09/01 12:21:13;;;;;;;3.05;1.10;;;23.90;87.00;;;;;;5091595;28;20593;-80
2023/09/01 12:23:43;;;;;;;3.45;1.23;;;23.90;87.40;;;;;;5091145;28;20322;-80
2023/09/01 12:26:10;;;;;;;4.38;0.90;;;24.00;86.80;;;;;;5091562;28;20313;-80
2023/09/01 12:28:38;;;;;;;3.40;1.20;;;24.00;86.80;;;;;;5083475;28;20232;-80
2023/09/01 12:31:06;;;;;;;6.50;1.20;;;24.10;87.30;;;;;;5089645;28;20245;-79
2023/09/01 12:33:33;;;;;;;2.22;1.05;;;24.10;86.90;;;;;;5077419;28;20233;-80
2023/09/01 12:36:00;;;;;;;3.40;1.17;;;24.20;86.60;;;;;;5095737;28;20215;-80
2023/09/01 12:38:27;;;;;;;2.85;1.00;;;24.30;86.70;;;;;;5095341;28;20227;-80
2023/09/01 12:40:57;;;;;;;2.85;1.10;;;24.40;86.50;;;;;;5110235;28;20236;-80
2023/09/01 12:43:23;;;;;;;2.25;1.02;;;24.50;85.50;;;;;;5114932;28;20312;-80
2023/09/01 12:45:50;;;;;;;2.05;1.17;;;24.60;82.60;;;;;;5116267;28;20229;-80
2023/09/01 12:48:17;;;;;;;3.97;1.30;;;24.60;81.50;;;;;;5115148;28;20259;-80
2023/09/01 12:50:45;;;;;;;2.15;1.05;;;24.60;81.80;;;;;;5116360;28;20674;-80